Terminal Aerodrome Forecast
Issued by NWS

Home | Current Version | Previous Version | Text Only | Print | Product List | Glossary On
Versions: 1 2 3 4 5 6 7 8 9 10 11 12 13 14 15 16 17 18 19 20 21 22 23 24 25 26 27 28 29 30 31 32 33 34 35 36 37 38 39 40 41 42 43 44 45 46 47 48 49 50
000
FTUS43 KMKX 231622 AAB
TAFUES
TAF AMD
KUES 231622Z 2316/2412 18010KT 5SM -RA BR OVC016
     FM231800 19010KT 3SM -RA BR OVC008
     FM232000 16008KT 3SM RA BR OVC008
     FM232100 15009KT 2SM RA BR OVC003
     FM240200 12008KT 3/4SM RA BR OVC003
     FM240500 11004KT 1SM RA OVC003
     FM240600 VRB03KT 1SM -RA OVC003=

USA.gov is the U.S. government's official web portal to all federal, state and local government web resources and services.